sensor_id;sensor_type;location;lat;lon;timestamp;temperature;humidity
20102;DHT22;10210;52.284;9.892;2023-02-15T00:01:46;7.50;99.90
20102;DHT22;10210;52.284;9.892;2023-02-15T00:04:15;7.50;99.90
20102;DHT22;10210;52.284;9.892;2023-02-15T00:06:42;7.50;99.90
20102;DHT22;10210;52.284;9.892;2023-02-15T00:09:09;7.50;99.90
20102;DHT22;10210;52.284;9.892;2023-02-15T00:11:35;7.50;99.90
20102;DHT22;10210;52.284;9.892;2023-02-15T00:14:22;7.50;99.90
20102;DHT22;10210;52.284;9.892;2023-02-15T00:16:50;7.40;99.90
20102;DHT22;10210;52.284;9.892;2023-02-15T00:19:18;7.40;99.90
20102;DHT22;10210;52.284;9.892;2023-02-15T00:21:46;7.40;99.90
20102;DHT22;10210;52.284;9.892;2023-02-15T00:24:15;7.40;99.90
20102;DHT22;10210;52.284;9.892;2023-02-15T00:26:43;7.30;99.90
20102;DHT22;10210;52.284;9.892;2023-02-15T00:29:10;7.30;99.90
20102;DHT22;10210;52.284;9.892;2023-02-15T00:31:37;7.30;99.90
20102;DHT22;10210;52.284;9.892;2023-02-15T00:34:04;7.30;99.90
20102;DHT22;10210;52.284;9.892;2023-02-15T00:36:32;7.30;99.90
20102;DHT22;10210;52.284;9.892;2023-02-15T00:38:58;7.30;99.90
20102;DHT22;10210;52.284;9.892;2023-02-15T00:41:24;7.30;99.90
20102;DHT22;10210;52.284;9.892;2023-02-15T00:43:50;7.30;99.90
20102;DHT22;10210;52.284;9.892;2023-02-15T00:46:16;7.20;99.90
20102;DHT22;10210;52.284;9.892;2023-02-15T00:48:42;7.30;99.90
20102;DHT22;10210;52.284;9.892;2023-02-15T00:51:08;7.30;99.90
20102;DHT22;10210;52.284;9.892;2023-02-15T00:53:33;7.20;99.90
20102;DHT22;10210;52.284;9.892;2023-02-15T00:55:59;7.20;99.90
20102;DHT22;10210;52.284;9.892;2023-02-15T00:58:25;7.20;99.90
20102;DHT22;10210;52.284;9.892;2023-02-15T01:00:51;7.10;99.90
20102;DHT22;10210;52.284;9.892;2023-02-15T01:03:19;7.10;99.90
20102;DHT22;10210;52.284;9.892;2023-02-15T01:05:47;7.10;99.90
20102;DHT22;10210;52.284;9.892;2023-02-15T01:08:15;7.10;99.90
20102;DHT22;10210;52.284;9.892;2023-02-15T01:10:41;7.00;99.90
20102;DHT22;10210;52.284;9.892;2023-02-15T01:13:09;7.10;99.90
20102;DHT22;10210;52.284;9.892;2023-02-15T01:15:35;7.00;99.90
20102;DHT22;10210;52.284;9.892;2023-02-15T01:18:01;6.90;99.90
20102;DHT22;10210;52.284;9.892;2023-02-15T01:20:28;6.90;99.90
20102;DHT22;10210;52.284;9.892;2023-02-15T01:22:55;6.90;99.90
20102;DHT22;10210;52.284;9.892;2023-02-15T01:25:23;6.90;99.90
20102;DHT22;10210;52.284;9.892;2023-02-15T01:27:49;6.90;99.90
20102;DHT22;10210;52.284;9.892;2023-02-15T01:30:15;6.90;99.90
20102;DHT22;10210;52.284;9.892;2023-02-15T01:32:42;6.90;99.90
20102;DHT22;10210;52.284;9.892;2023-02-15T01:35:09;6.90;99.90
20102;DHT22;10210;52.284;9.892;2023-02-15T01:37:36;6.90;99.90
20102;DHT22;10210;52.284;9.892;2023-02-15T01:40:04;6.90;99.90
20102;DHT22;10210;52.284;9.892;2023-02-15T01:42:33;6.90;99.90
20102;DHT22;10210;52.284;9.892;2023-02-15T01:45:04;6.90;99.90
20102;DHT22;10210;52.284;9.892;2023-02-15T01:50:54;6.80;99.90
20102;DHT22;10210;52.284;9.892;2023-02-15T01:53:30;6.90;99.90
20102;DHT22;10210;52.284;9.892;2023-02-15T01:56:05;6.80;99.90
20102;DHT22;10210;52.284;9.892;2023-02-15T01:58:34;6.90;99.90
20102;DHT22;10210;52.284;9.892;2023-02-15T02:01:01;6.80;99.90
20102;DHT22;10210;52.284;9.892;2023-02-15T02:06:31;6.80;99.90
20102;DHT22;10210;52.284;9.892;2023-02-15T02:08:58;6.80;99.90
20102;DHT22;10210;52.284;9.892;2023-02-15T02:11:24;6.80;99.90
20102;DHT22;10210;52.284;9.892;2023-02-15T02:13:51;6.80;99.90
20102;DHT22;10210;52.284;9.892;2023-02-15T02:16:25;6.70;99.90
20102;DHT22;10210;52.284;9.892;2023-02-15T02:34:45;6.80;99.90
20102;DHT22;10210;52.284;9.892;2023-02-15T02:37:31;6.70;99.90
20102;DHT22;10210;52.284;9.892;2023-02-15T02:40:03;6.70;99.90
20102;DHT22;10210;52.284;9.892;2023-02-15T02:42:44;6.70;99.90
20102;DHT22;10210;52.284;9.892;2023-02-15T02:45:30;6.70;99.90
20102;DHT22;10210;52.284;9.892;2023-02-15T02:48:08;6.70;99.90
20102;DHT22;10210;52.284;9.892;2023-02-15T02:50:39;6.70;99.90
20102;DHT22;10210;52.284;9.892;2023-02-15T02:53:06;6.70;99.90
20102;DHT22;10210;52.284;9.892;2023-02-15T02:55:47;6.70;99.90
20102;DHT22;10210;52.284;9.892;2023-02-15T03:01:34;6.70;99.90
20102;DHT22;10210;52.284;9.892;2023-02-15T03:04:02;6.70;99.90
20102;DHT22;10210;52.284;9.892;2023-02-15T03:06:39;6.70;99.90
20102;DHT22;10210;52.284;9.892;2023-02-15T03:09:14;6.70;99.90
20102;DHT22;10210;52.284;9.892;2023-02-15T03:11:44;6.70;99.90
20102;DHT22;10210;52.284;9.892;2023-02-15T03:14:13;6.70;99.90
20102;DHT22;10210;52.284;9.892;2023-02-15T03:16:43;6.60;99.90
20102;DHT22;10210;52.284;9.892;2023-02-15T03:19:22;6.60;99.90
20102;DHT22;10210;52.284;9.892;2023-02-15T03:21:56;6.60;99.90
20102;DHT22;10210;52.284;9.892;2023-02-15T03:24:35;6.50;99.90
20102;DHT22;10210;52.284;9.892;2023-02-15T03:27:05;6.60;99.90
20102;DHT22;10210;52.284;9.892;2023-02-15T03:29:35;6.50;99.90
20102;DHT22;10210;52.284;9.892;2023-02-15T03:32:05;6.50;99.90
20102;DHT22;10210;52.284;9.892;2023-02-15T03:34:34;6.50;99.90
20102;DHT22;10210;52.284;9.892;2023-02-15T03:37:05;6.40;99.90
20102;DHT22;10210;52.284;9.892;2023-02-15T03:39:54;6.40;99.90
20102;DHT22;10210;52.284;9.892;2023-02-15T03:42:45;6.40;99.90
20102;DHT22;10210;52.284;9.892;2023-02-15T03:45:19;6.40;99.90
20102;DHT22;10210;52.284;9.892;2023-02-15T03:47:52;6.40;99.90
20102;DHT22;10210;52.284;9.892;2023-02-15T03:50:26;6.40;99.90
20102;DHT22;10210;52.284;9.892;2023-02-15T03:53:16;6.30;99.90
20102;DHT22;10210;52.284;9.892;2023-02-15T03:55:54;6.30;99.90
20102;DHT22;10210;52.284;9.892;2023-02-15T03:58:21;6.30;99.90
20102;DHT22;10210;52.284;9.892;2023-02-15T04:01:19;6.30;99.90
20102;DHT22;10210;52.284;9.892;2023-02-15T04:04:21;6.30;99.90
20102;DHT22;10210;52.284;9.892;2023-02-15T04:06:49;6.30;99.90
20102;DHT22;10210;52.284;9.892;2023-02-15T04:09:16;6.30;99.90
20102;DHT22;10210;52.284;9.892;2023-02-15T04:12:00;6.20;99.90
20102;DHT22;10210;52.284;9.892;2023-02-15T04:14:25;6.20;99.90
20102;DHT22;10210;52.284;9.892;2023-02-15T04:17:10;6.20;99.90
20102;DHT22;10210;52.284;9.892;2023-02-15T04:19:36;6.20;99.90
20102;DHT22;10210;52.284;9.892;2023-02-15T04:22:20;6.20;99.90
20102;DHT22;10210;52.284;9.892;2023-02-15T04:25:05;6.20;99.90
20102;DHT22;10210;52.284;9.892;2023-02-15T04:27:38;6.10;99.90
20102;DHT22;10210;52.284;9.892;2023-02-15T04:30:14;6.10;99.90
20102;DHT22;10210;52.284;9.892;2023-02-15T04:32:41;6.10;99.90
20102;DHT22;10210;52.284;9.892;2023-02-15T04:35:07;6.10;99.90
20102;DHT22;10210;52.284;9.892;2023-02-15T04:37:34;6.10;99.90
20102;DHT22;10210;52.284;9.892;2023-02-15T04:40:01;6.10;99.90
20102;DHT22;10210;52.284;9.892;2023-02-15T04:42:27;6.10;99.90
20102;DHT22;10210;52.284;9.892;2023-02-15T04:44:54;6.10;99.90
20102;DHT22;10210;52.284;9.892;2023-02-15T04:47:19;6.10;99.90
20102;DHT22;10210;52.284;9.892;2023-02-15T04:49:45;6.10;99.90
20102;DHT22;10210;52.284;9.892;2023-02-15T04:52:11;6.10;99.90
20102;DHT22;10210;52.284;9.892;2023-02-15T04:54:37;6.10;99.90
20102;DHT22;10210;52.284;9.892;2023-02-15T04:57:04;6.10;99.90
20102;DHT22;10210;52.284;9.892;2023-02-15T04:59:30;6.00;99.90
20102;DHT22;10210;52.284;9.892;2023-02-15T05:01:56;6.00;99.90
20102;DHT22;10210;52.284;9.892;2023-02-15T05:04:22;6.00;99.90
20102;DHT22;10210;52.284;9.892;2023-02-15T05:06:48;6.00;99.90
20102;DHT22;10210;52.284;9.892;2023-02-15T05:09:15;6.00;99.90
20102;DHT22;10210;52.284;9.892;2023-02-15T05:11:40;6.00;99.90
20102;DHT22;10210;52.284;9.892;2023-02-15T05:14:06;5.90;99.90
20102;DHT22;10210;52.284;9.892;2023-02-15T05:16:32;5.90;99.90
20102;DHT22;10210;52.284;9.892;2023-02-15T05:18:58;5.90;99.90
20102;DHT22;10210;52.284;9.892;2023-02-15T05:21:23;5.90;99.90
20102;DHT22;10210;52.284;9.892;2023-02-15T05:23:49;5.90;99.90
20102;DHT22;10210;52.284;9.892;2023-02-15T05:26:21;5.90;99.90
20102;DHT22;10210;52.284;9.892;2023-02-15T05:29:06;5.80;99.90
20102;DHT22;10210;52.284;9.892;2023-02-15T05:31:33;5.80;99.90
20102;DHT22;10210;52.284;9.892;2023-02-15T05:34:00;5.80;99.90
20102;DHT22;10210;52.284;9.892;2023-02-15T05:36:26;5.80;99.90
20102;DHT22;10210;52.284;9.892;2023-02-15T05:38:53;5.80;99.90
20102;DHT22;10210;52.284;9.892;2023-02-15T05:41:19;5.80;99.90
20102;DHT22;10210;52.284;9.892;2023-02-15T05:43:44;5.80;99.90
20102;DHT22;10210;52.284;9.892;2023-02-15T05:46:11;5.80;99.90
20102;DHT22;10210;52.284;9.892;2023-02-15T05:48:37;5.70;99.90
20102;DHT22;10210;52.284;9.892;2023-02-15T05:51:05;5.70;99.90
20102;DHT22;10210;52.284;9.892;2023-02-15T05:53:35;5.70;99.90
20102;DHT22;10210;52.284;9.892;2023-02-15T05:56:03;5.70;99.90
20102;DHT22;10210;52.284;9.892;2023-02-15T05:58:32;5.70;99.90
20102;DHT22;10210;52.284;9.892;2023-02-15T06:01:17;5.70;99.90
20102;DHT22;10210;52.284;9.892;2023-02-15T06:03:44;5.60;99.90
20102;DHT22;10210;52.284;9.892;2023-02-15T06:06:11;5.60;99.90
20102;DHT22;10210;52.284;9.892;2023-02-15T06:08:37;5.60;99.90
20102;DHT22;10210;52.284;9.892;2023-02-15T06:11:04;5.60;99.90
20102;DHT22;10210;52.284;9.892;2023-02-15T06:13:30;5.50;99.90
20102;DHT22;10210;52.284;9.892;2023-02-15T06:15:56;5.50;99.90
20102;DHT22;10210;52.284;9.892;2023-02-15T06:18:22;5.50;99.90
20102;DHT22;10210;52.284;9.892;2023-02-15T06:20:48;5.50;99.90
20102;DHT22;10210;52.284;9.892;2023-02-15T06:23:15;5.50;99.90
20102;DHT22;10210;52.284;9.892;2023-02-15T06:25:41;5.50;99.90
20102;DHT22;10210;52.284;9.892;2023-02-15T06:28:07;5.40;99.90
20102;DHT22;10210;52.284;9.892;2023-02-15T06:30:33;5.50;99.90
20102;DHT22;10210;52.284;9.892;2023-02-15T06:32:59;5.40;99.90
20102;DHT22;10210;52.284;9.892;2023-02-15T06:35:24;5.40;99.90
20102;DHT22;10210;52.284;9.892;2023-02-15T06:37:50;5.40;99.90
20102;DHT22;10210;52.284;9.892;2023-02-15T06:40:16;5.40;99.90
20102;DHT22;10210;52.284;9.892;2023-02-15T06:42:42;5.40;99.90
20102;DHT22;10210;52.284;9.892;2023-02-15T06:45:09;5.40;99.90
20102;DHT22;10210;52.284;9.892;2023-02-15T06:47:35;5.40;99.90
20102;DHT22;10210;52.284;9.892;2023-02-15T06:50:01;5.30;99.90
20102;DHT22;10210;52.284;9.892;2023-02-15T06:52:27;5.30;99.90
20102;DHT22;10210;52.284;9.892;2023-02-15T06:54:54;5.30;99.90
20102;DHT22;10210;52.284;9.892;2023-02-15T06:57:20;5.30;99.90
20102;DHT22;10210;52.284;9.892;2023-02-15T06:59:46;5.30;99.90
20102;DHT22;10210;52.284;9.892;2023-02-15T07:02:12;5.30;99.90
20102;DHT22;10210;52.284;9.892;2023-02-15T07:04:39;5.30;99.90
20102;DHT22;10210;52.284;9.892;2023-02-15T07:07:08;5.30;99.90
20102;DHT22;10210;52.284;9.892;2023-02-15T07:09:36;5.30;99.90
20102;DHT22;10210;52.284;9.892;2023-02-15T07:12:02;5.30;99.90
20102;DHT22;10210;52.284;9.892;2023-02-15T07:14:46;5.20;99.90
20102;DHT22;10210;52.284;9.892;2023-02-15T07:17:12;5.20;99.90
20102;DHT22;10210;52.284;9.892;2023-02-15T07:19:38;5.20;99.90
20102;DHT22;10210;52.284;9.892;2023-02-15T07:22:04;5.20;99.90
20102;DHT22;10210;52.284;9.892;2023-02-15T07:24:30;5.20;99.90
20102;DHT22;10210;52.284;9.892;2023-02-15T07:26:56;5.20;99.90
20102;DHT22;10210;52.284;9.892;2023-02-15T07:29:23;5.20;99.90
20102;DHT22;10210;52.284;9.892;2023-02-15T07:31:49;5.20;99.90
20102;DHT22;10210;52.284;9.892;2023-02-15T07:34:15;5.20;99.90
20102;DHT22;10210;52.284;9.892;2023-02-15T07:36:41;5.20;99.90
20102;DHT22;10210;52.284;9.892;2023-02-15T07:39:09;5.10;99.90
20102;DHT22;10210;52.284;9.892;2023-02-15T07:41:35;5.10;99.90
20102;DHT22;10210;52.284;9.892;2023-02-15T07:44:11;5.10;99.90
20102;DHT22;10210;52.284;9.892;2023-02-15T07:46:39;5.10;99.90
20102;DHT22;10210;52.284;9.892;2023-02-15T07:49:05;5.10;99.90
20102;DHT22;10210;52.284;9.892;2023-02-15T07:51:30;5.20;99.90
20102;DHT22;10210;52.284;9.892;2023-02-15T07:53:56;5.20;99.90
20102;DHT22;10210;52.284;9.892;2023-02-15T07:56:22;5.10;99.90
20102;DHT22;10210;52.284;9.892;2023-02-15T07:58:47;5.20;99.90
20102;DHT22;10210;52.284;9.892;2023-02-15T08:01:18;5.20;99.90
20102;DHT22;10210;52.284;9.892;2023-02-15T08:03:50;5.20;99.90
20102;DHT22;10210;52.284;9.892;2023-02-15T08:06:16;5.20;99.90
20102;DHT22;10210;52.284;9.892;2023-02-15T08:08:42;5.20;99.90
20102;DHT22;10210;52.284;9.892;2023-02-15T08:11:25;5.20;99.90
20102;DHT22;10210;52.284;9.892;2023-02-15T08:14:08;5.30;99.90
20102;DHT22;10210;52.284;9.892;2023-02-15T08:16:38;5.30;99.90
20102;DHT22;10210;52.284;9.892;2023-02-15T08:19:08;5.30;99.90
20102;DHT22;10210;52.284;9.892;2023-02-15T08:21:37;5.30;99.90
20102;DHT22;10210;52.284;9.892;2023-02-15T08:24:06;5.30;99.90
20102;DHT22;10210;52.284;9.892;2023-02-15T08:26:33;5.30;99.90
20102;DHT22;10210;52.284;9.892;2023-02-15T08:29:00;5.30;99.90
20102;DHT22;10210;52.284;9.892;2023-02-15T08:31:27;5.30;99.90
20102;DHT22;10210;52.284;9.892;2023-02-15T08:33:54;5.40;99.90
20102;DHT22;10210;52.284;9.892;2023-02-15T08:36:24;5.40;99.90
20102;DHT22;10210;52.284;9.892;2023-02-15T08:38:56;5.40;99.90
20102;DHT22;10210;52.284;9.892;2023-02-15T08:41:29;5.40;99.90
20102;DHT22;10210;52.284;9.892;2023-02-15T08:44:01;5.50;99.90
20102;DHT22;10210;52.284;9.892;2023-02-15T08:46:31;5.50;99.90
20102;DHT22;10210;52.284;9.892;2023-02-15T08:48:59;5.50;99.90
20102;DHT22;10210;52.284;9.892;2023-02-15T08:51:27;5.60;99.90
20102;DHT22;10210;52.284;9.892;2023-02-15T08:53:57;5.70;99.90
20102;DHT22;10210;52.284;9.892;2023-02-15T08:56:26;5.70;99.90
20102;DHT22;10210;52.284;9.892;2023-02-15T08:58:54;5.70;99.90
20102;DHT22;10210;52.284;9.892;2023-02-15T09:01:22;5.80;99.90
20102;DHT22;10210;52.284;9.892;2023-02-15T09:03:59;5.80;99.90
20102;DHT22;10210;52.284;9.892;2023-02-15T09:06:28;6.00;99.90
20102;DHT22;10210;52.284;9.892;2023-02-15T09:08:54;6.20;99.90
20102;DHT22;10210;52.284;9.892;2023-02-15T09:11:24;6.40;99.90
20102;DHT22;10210;52.284;9.892;2023-02-15T09:14:00;6.70;99.90
20102;DHT22;10210;52.284;9.892;2023-02-15T09:16:30;7.10;99.90
20102;DHT22;10210;52.284;9.892;2023-02-15T09:18:57;7.40;99.90
20102;DHT22;10210;52.284;9.892;2023-02-15T09:21:25;7.70;99.90
20102;DHT22;10210;52.284;9.892;2023-02-15T09:23:56;8.10;99.90
20102;DHT22;10210;52.284;9.892;2023-02-15T09:26:24;8.40;99.90
20102;DHT22;10210;52.284;9.892;2023-02-15T09:28:54;8.70;99.90
20102;DHT22;10210;52.284;9.892;2023-02-15T09:31:25;9.10;99.90
20102;DHT22;10210;52.284;9.892;2023-02-15T09:33:52;9.40;99.90
20102;DHT22;10210;52.284;9.892;2023-02-15T09:38:45;9.80;99.90
20102;DHT22;10210;52.284;9.892;2023-02-15T09:56:42;10.70;99.90
20102;DHT22;10210;52.284;9.892;2023-02-15T09:59:35;10.80;99.90
20102;DHT22;10210;52.284;9.892;2023-02-15T10:02:37;10.90;99.90
20102;DHT22;10210;52.284;9.892;2023-02-15T10:11:21;11.10;99.90
20102;DHT22;10210;52.284;9.892;2023-02-15T10:14:28;11.10;99.90
20102;DHT22;10210;52.284;9.892;2023-02-15T10:23:13;11.10;99.90
20102;DHT22;10210;52.284;9.892;2023-02-15T10:26:29;11.20;99.90
20102;DHT22;10210;52.284;9.892;2023-02-15T10:29:37;11.10;99.90
20102;DHT22;10210;52.284;9.892;2023-02-15T10:32:26;11.10;99.90
20102;DHT22;10210;52.284;9.892;2023-02-15T10:35:01;11.10;99.90
20102;DHT22;10210;52.284;9.892;2023-02-15T10:37:49;11.00;99.90
20102;DHT22;10210;52.284;9.892;2023-02-15T10:46:26;10.80;99.90
20102;DHT22;10210;52.284;9.892;2023-02-15T10:49:37;10.70;99.90
20102;DHT22;10210;52.284;9.892;2023-02-15T10:52:46;10.50;99.90
20102;DHT22;10210;52.284;9.892;2023-02-15T11:08:07;10.00;99.90
20102;DHT22;10210;52.284;9.892;2023-02-15T11:10:54;10.00;99.90
20102;DHT22;10210;52.284;9.892;2023-02-15T11:13:29;9.90;99.90
20102;DHT22;10210;52.284;9.892;2023-02-15T11:16:16;9.90;99.90
20102;DHT22;10210;52.284;9.892;2023-02-15T11:18:54;9.90;99.90
20102;DHT22;10210;52.284;9.892;2023-02-15T11:21:25;9.90;99.90
20102;DHT22;10210;52.284;9.892;2023-02-15T11:23:55;9.80;99.90
20102;DHT22;10210;52.284;9.892;2023-02-15T11:26:26;9.80;99.90
20102;DHT22;10210;52.284;9.892;2023-02-15T11:29:07;9.90;99.90
20102;DHT22;10210;52.284;9.892;2023-02-15T11:31:45;9.80;99.90
20102;DHT22;10210;52.284;9.892;2023-02-15T11:34:36;9.90;99.90
20102;DHT22;10210;52.284;9.892;2023-02-15T11:37:08;9.90;99.90
20102;DHT22;10210;52.284;9.892;2023-02-15T11:39:37;9.90;99.90
20102;DHT22;10210;52.284;9.892;2023-02-15T11:42:14;10.00;99.90
20102;DHT22;10210;52.284;9.892;2023-02-15T11:44:55;10.00;99.90
20102;DHT22;10210;52.284;9.892;2023-02-15T11:47:21;10.00;99.90
20102;DHT22;10210;52.284;9.892;2023-02-15T11:49:48;10.10;99.90
20102;DHT22;10210;52.284;9.892;2023-02-15T11:52:15;10.10;99.90
20102;DHT22;10210;52.284;9.892;2023-02-15T11:54:46;10.10;99.90
20102;DHT22;10210;52.284;9.892;2023-02-15T11:57:31;10.10;99.90
20102;DHT22;10210;52.284;9.892;2023-02-15T12:00:20;10.10;99.90
20102;DHT22;10210;52.284;9.892;2023-02-15T12:02:53;10.20;99.90
20102;DHT22;10210;52.284;9.892;2023-02-15T12:05:24;10.20;99.90
20102;DHT22;10210;52.284;9.892;2023-02-15T12:08:19;10.30;99.90
20102;DHT22;10210;52.284;9.892;2023-02-15T12:11:00;10.30;99.90
20102;DHT22;10210;52.284;9.892;2023-02-15T12:13:32;10.30;99.90
20102;DHT22;10210;52.284;9.892;2023-02-15T12:15:59;10.30;99.90
20102;DHT22;10210;52.284;9.892;2023-02-15T12:18:40;10.40;99.90
20102;DHT22;10210;52.284;9.892;2023-02-15T12:21:15;10.40;99.90
20102;DHT22;10210;52.284;9.892;2023-02-15T12:24:29;10.40;99.90
20102;DHT22;10210;52.284;9.892;2023-02-15T12:27:01;10.50;99.90
20102;DHT22;10210;52.284;9.892;2023-02-15T12:29:45;10.50;99.90
20102;DHT22;10210;52.284;9.892;2023-02-15T12:32:19;10.60;99.90
20102;DHT22;10210;52.284;9.892;2023-02-15T12:34:51;10.60;99.90
20102;DHT22;10210;52.284;9.892;2023-02-15T12:37:23;10.70;99.90
20102;DHT22;10210;52.284;9.892;2023-02-15T12:39:57;10.70;99.90
20102;DHT22;10210;52.284;9.892;2023-02-15T12:42:27;10.80;99.90
20102;DHT22;10210;52.284;9.892;2023-02-15T12:45:30;10.90;99.90
20102;DHT22;10210;52.284;9.892;2023-02-15T12:48:14;10.90;99.90
20102;DHT22;10210;52.284;9.892;2023-02-15T12:50:43;11.00;99.90
20102;DHT22;10210;52.284;9.892;2023-02-15T12:56:08;11.10;99.90
20102;DHT22;10210;52.284;9.892;2023-02-15T12:58:37;11.10;99.90
20102;DHT22;10210;52.284;9.892;2023-02-15T13:01:17;11.10;99.90
20102;DHT22;10210;52.284;9.892;2023-02-15T13:06:26;11.10;99.90
20102;DHT22;10210;52.284;9.892;2023-02-15T13:08:55;11.20;99.90
20102;DHT22;10210;52.284;9.892;2023-02-15T13:11:29;11.20;99.90
20102;DHT22;10210;52.284;9.892;2023-02-15T13:14:02;11.20;99.90
20102;DHT22;10210;52.284;9.892;2023-02-15T13:16:41;11.20;99.90
20102;DHT22;10210;52.284;9.892;2023-02-15T13:19:22;11.30;99.90
20102;DHT22;10210;52.284;9.892;2023-02-15T13:22:02;11.40;99.90
20102;DHT22;10210;52.284;9.892;2023-02-15T13:24:43;11.40;99.90
20102;DHT22;10210;52.284;9.892;2023-02-15T13:27:19;11.50;99.90
20102;DHT22;10210;52.284;9.892;2023-02-15T13:29:50;11.50;99.90
20102;DHT22;10210;52.284;9.892;2023-02-15T13:32:31;11.50;99.90
20102;DHT22;10210;52.284;9.892;2023-02-15T13:35:03;11.60;99.90
20102;DHT22;10210;52.284;9.892;2023-02-15T13:37:54;11.60;99.90
20102;DHT22;10210;52.284;9.892;2023-02-15T13:40:48;11.60;99.90
20102;DHT22;10210;52.284;9.892;2023-02-15T14:00:02;11.70;99.90
20102;DHT22;10210;52.284;9.892;2023-02-15T14:02:52;11.70;99.90
20102;DHT22;10210;52.284;9.892;2023-02-15T14:08:51;11.80;99.90
20102;DHT22;10210;52.284;9.892;2023-02-15T14:14:32;11.80;99.90
20102;DHT22;10210;52.284;9.892;2023-02-15T14:18:12;11.90;99.90
20102;DHT22;10210;52.284;9.892;2023-02-15T14:20:25;12.00;99.90
20102;DHT22;10210;52.284;9.892;2023-02-15T14:23:19;12.00;99.90
20102;DHT22;10210;52.284;9.892;2023-02-15T14:25:57;12.00;99.90
20102;DHT22;10210;52.284;9.892;2023-02-15T14:29:02;12.00;99.90
20102;DHT22;10210;52.284;9.892;2023-02-15T14:31:49;12.00;99.90
20102;DHT22;10210;52.284;9.892;2023-02-15T14:34:27;11.90;99.90
20102;DHT22;10210;52.284;9.892;2023-02-15T14:37:03;11.90;99.90
20102;DHT22;10210;52.284;9.892;2023-02-15T14:39:48;11.90;99.90
20102;DHT22;10210;52.284;9.892;2023-02-15T14:43:01;11.90;99.90
20102;DHT22;10210;52.284;9.892;2023-02-15T14:45:58;11.90;99.90
20102;DHT22;10210;52.284;9.892;2023-02-15T14:48:31;11.90;99.90
20102;DHT22;10210;52.284;9.892;2023-02-15T14:51:10;11.80;99.90
20102;DHT22;10210;52.284;9.892;2023-02-15T14:53:37;11.80;99.90
20102;DHT22;10210;52.284;9.892;2023-02-15T14:58:55;11.80;99.90
20102;DHT22;10210;52.284;9.892;2023-02-15T15:01:34;11.80;99.90
20102;DHT22;10210;52.284;9.892;2023-02-15T15:04:07;11.70;99.90
20102;DHT22;10210;52.284;9.892;2023-02-15T15:06:41;11.80;99.90
20102;DHT22;10210;52.284;9.892;2023-02-15T15:09:25;11.80;99.90
20102;DHT22;10210;52.284;9.892;2023-02-15T15:11:55;11.80;99.90
20102;DHT22;10210;52.284;9.892;2023-02-15T15:14:44;11.70;99.90
20102;DHT22;10210;52.284;9.892;2023-02-15T15:17:13;11.70;99.90
20102;DHT22;10210;52.284;9.892;2023-02-15T15:20:14;11.80;99.90
20102;DHT22;10210;52.284;9.892;2023-02-15T15:26:20;11.80;99.90
20102;DHT22;10210;52.284;9.892;2023-02-15T15:28:55;11.80;99.90
20102;DHT22;10210;52.284;9.892;2023-02-15T15:31:40;11.90;99.90
20102;DHT22;10210;52.284;9.892;2023-02-15T15:34:18;11.90;99.90
20102;DHT22;10210;52.284;9.892;2023-02-15T15:40:28;11.90;99.90
20102;DHT22;10210;52.284;9.892;2023-02-15T15:49:12;11.90;99.90
20102;DHT22;10210;52.284;9.892;2023-02-15T15:51:42;11.90;99.90
20102;DHT22;10210;52.284;9.892;2023-02-15T15:54:18;11.80;99.90
20102;DHT22;10210;52.284;9.892;2023-02-15T15:56:52;11.80;99.90
20102;DHT22;10210;52.284;9.892;2023-02-15T15:59:24;11.70;99.90
20102;DHT22;10210;52.284;9.892;2023-02-15T16:01:52;11.70;99.90
20102;DHT22;10210;52.284;9.892;2023-02-15T16:04:29;11.60;99.90
20102;DHT22;10210;52.284;9.892;2023-02-15T16:06:58;11.60;99.90
20102;DHT22;10210;52.284;9.892;2023-02-15T16:09:39;11.60;99.90
20102;DHT22;10210;52.284;9.892;2023-02-15T16:12:13;11.60;99.90
20102;DHT22;10210;52.284;9.892;2023-02-15T16:14:43;11.50;99.90
20102;DHT22;10210;52.284;9.892;2023-02-15T16:17:24;11.50;99.90
20102;DHT22;10210;52.284;9.892;2023-02-15T16:19:51;11.40;99.90
20102;DHT22;10210;52.284;9.892;2023-02-15T16:22:25;11.40;99.90
20102;DHT22;10210;52.284;9.892;2023-02-15T16:25:17;11.30;99.90
20102;DHT22;10210;52.284;9.892;2023-02-15T16:27:53;11.30;99.90
20102;DHT22;10210;52.284;9.892;2023-02-15T16:35:32;11.10;99.90
20102;DHT22;10210;52.284;9.892;2023-02-15T16:37:58;11.10;99.90
20102;DHT22;10210;52.284;9.892;2023-02-15T16:42:51;11.00;99.90
20102;DHT22;10210;52.284;9.892;2023-02-15T16:45:23;11.00;99.90
20102;DHT22;10210;52.284;9.892;2023-02-15T16:47:55;10.90;99.90
20102;DHT22;10210;52.284;9.892;2023-02-15T16:50:33;10.90;99.90
20102;DHT22;10210;52.284;9.892;2023-02-15T16:53:02;10.80;99.90
20102;DHT22;10210;52.284;9.892;2023-02-15T16:55:35;10.80;99.90
20102;DHT22;10210;52.284;9.892;2023-02-15T16:58:05;10.80;99.90
20102;DHT22;10210;52.284;9.892;2023-02-15T17:00:37;10.80;99.90
20102;DHT22;10210;52.284;9.892;2023-02-15T17:03:22;10.80;99.90
20102;DHT22;10210;52.284;9.892;2023-02-15T17:05:58;10.70;99.90
20102;DHT22;10210;52.284;9.892;2023-02-15T17:19:53;10.60;99.90
20102;DHT22;10210;52.284;9.892;2023-02-15T17:22:23;10.50;99.90
20102;DHT22;10210;52.284;9.892;2023-02-15T17:24:59;10.50;99.90
20102;DHT22;10210;52.284;9.892;2023-02-15T17:27:29;10.50;99.90
20102;DHT22;10210;52.284;9.892;2023-02-15T17:30:01;10.40;99.90
20102;DHT22;10210;52.284;9.892;2023-02-15T17:32:31;10.40;99.90
20102;DHT22;10210;52.284;9.892;2023-02-15T17:38:18;10.30;99.90
20102;DHT22;10210;52.284;9.892;2023-02-15T17:40:45;10.30;99.90
20102;DHT22;10210;52.284;9.892;2023-02-15T17:43:11;10.30;99.90
20102;DHT22;10210;52.284;9.892;2023-02-15T17:45:46;10.30;99.90
20102;DHT22;10210;52.284;9.892;2023-02-15T17:48:31;10.30;99.90
20102;DHT22;10210;52.284;9.892;2023-02-15T17:51:03;10.20;99.90
20102;DHT22;10210;52.284;9.892;2023-02-15T17:53:32;10.20;99.90
20102;DHT22;10210;52.284;9.892;2023-02-15T17:55:58;10.10;99.90
20102;DHT22;10210;52.284;9.892;2023-02-15T17:58:24;10.10;99.90
20102;DHT22;10210;52.284;9.892;2023-02-15T18:00:57;10.00;99.90
20102;DHT22;10210;52.284;9.892;2023-02-15T18:03:49;10.00;99.90
20102;DHT22;10210;52.284;9.892;2023-02-15T18:06:38;10.00;99.90
20102;DHT22;10210;52.284;9.892;2023-02-15T18:09:24;9.90;99.90
20102;DHT22;10210;52.284;9.892;2023-02-15T18:12:28;9.90;99.90
20102;DHT22;10210;52.284;9.892;2023-02-15T18:14:56;9.80;99.90
20102;DHT22;10210;52.284;9.892;2023-02-15T18:17:33;9.80;99.90
20102;DHT22;10210;52.284;9.892;2023-02-15T18:20:04;9.80;99.90
20102;DHT22;10210;52.284;9.892;2023-02-15T18:22:32;9.80;99.90
20102;DHT22;10210;52.284;9.892;2023-02-15T18:24:58;9.70;99.90
20102;DHT22;10210;52.284;9.892;2023-02-15T18:27:24;9.70;99.90
20102;DHT22;10210;52.284;9.892;2023-02-15T18:29:50;9.70;99.90
20102;DHT22;10210;52.284;9.892;2023-02-15T18:32:21;9.70;99.90
20102;DHT22;10210;52.284;9.892;2023-02-15T18:35:01;9.70;99.90
20102;DHT22;10210;52.284;9.892;2023-02-15T18:37:30;9.60;99.90
20102;DHT22;10210;52.284;9.892;2023-02-15T18:39:59;9.60;99.90